Selfridge Angb Airport
KMTC : rendu visible

Aérodrome :











RETROUVEZ-NOUS SUR...

 
LOGIN :

S'inscrire | Disclaimer

   EN    FR    IT 

 









Légende :    VFR   VFR Marginal   IFR   IFR Intensif   IFR Très Intensif
Visi : 
Plafond : 
>= 8 km
>= 3000ft
5 à 8 km
1000 à 3000 ft
1500m à 5 km
500 à 1000 ft
800 à 1500m
200 à 500 ft
< 800m
< 200 ft
Symboles :   Orages  Brouillard  Fortes neiges  Fortes précipitations  Vent > 20 kt






- Altitude de l'aérodrome : 580 ft


KMTC - Selfridge Angb

DERNIER METAR :
  • 290921Z AUTO 12004KT 10SM OVC003 08/08 A2955 RMK AO2 RAE03RAB06E20DZB20E21 CIG 002 RWY01 SLP013 $

METARs EXPIRÉS :
  • 290906Z AUTO 12008KT 10SM -RA OVC003 08/08 A2956 RMK AO2 RAE03RAB06 SLP017 $
  • 290903Z AUTO 11011KT 10SM OVC003 08/08 A2956 RMK AO2 RAE03 SLP017 $
  • 290845Z AUTO 12006KT 10SM OVC003 08/08 A2957 RMK AO2 RAB32E44DZB44E45 SLP020 $
  • 290832Z AUTO 10009G17KT 10SM -RA OVC004 08/08 A2958 RMK AO2 RAB32 CIG 003 RWY01 SLP023 $
  • 290756Z AUTO 10010KT 10SM OVC005 08/08 A2960 RMK AO2 CIG 003V005 CIG 004 RWY01 SLP030 T00760076 $
  • 290708Z AUTO 08008KT 10SM OVC004 07/07 A2964 RMK AO2 CIG 004V006 PRESFR SLP044 $
  • 290656Z AUTO 09007KT 10SM OVC006 07/07 A2966 RMK AO2 DZE02RAB02E12 CIG 004 RWY01 SLP051 P0001 T00740074 $
  • 290628Z AUTO 11009G16KT 10SM OVC005 08/08 A2968 RMK AO2 DZE02RAB02E12 SLP057 $

TAF AMD TAF KMTC
Valide du 29 à 02h jusqu'au 30 à 07h UTC


290245Z 2902/3007 12009KT 0800 -SHRA FG OVC000 QNH2967INS
TEMPO 2905/2908 21025G35KT 4800 -TSRA OVC002CB
BECMG 2911/2912 18006KT 8000 BR OVC020 QNH2950INS
BECMG 2915/2916 22035G50KT 9999 NSW BKN025 530003 QNH2949INS
BECMG 3000/3001 23018KT 9999 FEW030 QNH2964INS TX16/2915Z TN08/2905Z LAST NO AMDS AFT 2903 NEXT 2909



MET'MAP, la Météo Aéronautique d'un coup d'oeil ! - Copyright ORBIFLY Décembre 2007 - Disclaimer

ORBIFLY MET'MAP TEAM :

Programmation & Développement : Alexandra Zaïnal
Sur une idée originale de : Baudouin d'Aumeries
Assistance à la programmation : Marc-Olivier Méhu
Soutien technique & logistique : Manuel Goepfert

Contact : metmap@orbifly.com




SOURCES & CREDITS :

   NOAA       Earth
Advisory